createdAt,value
2023-06-28T00:02:35.907Z,13.72
2023-06-28T00:05:21.348Z,13.78
2023-06-28T00:08:06.715Z,13.65
2023-06-28T00:10:52.215Z,13.62
2023-06-28T00:13:37.745Z,13.51
2023-06-28T00:16:23.148Z,13.39
2023-06-28T00:19:08.374Z,13.44
2023-06-28T00:21:55.340Z,13.34
2023-06-28T00:24:40.595Z,13.30
2023-06-28T00:27:26.480Z,13.37
2023-06-28T00:30:12.296Z,13.35
2023-06-28T00:33:00.017Z,13.28
2023-06-28T00:35:45.095Z,13.14
2023-06-28T00:38:30.442Z,13.09
2023-06-28T00:41:15.453Z,13.14
2023-06-28T00:44:01.030Z,13.17
2023-06-28T00:46:46.726Z,13.15
2023-06-28T00:49:35.831Z,13.13
2023-06-28T00:52:21.561Z,13.07
2023-06-28T00:55:07.173Z,13.35
2023-06-28T00:57:52.706Z,13.33
2023-06-28T01:00:37.979Z,13.23
2023-06-28T01:03:23.457Z,13.21
2023-06-28T01:06:10.502Z,13.07
2023-06-28T01:08:55.680Z,12.88
2023-06-28T01:11:41.567Z,12.71
2023-06-28T01:14:26.704Z,12.91
2023-06-28T01:17:12.504Z,12.78
2023-06-28T01:19:57.491Z,12.72
2023-06-28T01:22:51.795Z,12.72
2023-06-28T01:25:37.306Z,12.62
2023-06-28T01:28:23.521Z,12.53
2023-06-28T01:31:08.948Z,12.61
2023-06-28T01:33:54.367Z,12.54
2023-06-28T01:36:39.885Z,12.45
2023-06-28T01:39:26.530Z,12.39
2023-06-28T01:42:11.962Z,12.49
2023-06-28T01:44:57.241Z,12.58
2023-06-28T01:47:42.891Z,12.36
2023-06-28T01:50:29.550Z,12.24
2023-06-28T01:53:15.995Z,12.30
2023-06-28T01:56:01.495Z,12.40
2023-06-28T01:58:47.013Z,12.53
2023-06-28T02:01:32.010Z,12.42
2023-06-28T02:04:17.660Z,12.43
2023-06-28T02:07:02.843Z,12.54
2023-06-28T02:09:48.204Z,12.66
2023-06-28T02:12:33.607Z,12.77
2023-06-28T02:15:19.545Z,12.84
2023-06-28T02:18:05.267Z,12.81
2023-06-28T02:20:51.100Z,12.75
2023-06-28T02:23:36.559Z,12.86
2023-06-28T02:26:21.747Z,12.77
2023-06-28T02:29:07.234Z,12.76
2023-06-28T02:31:52.228Z,12.54
2023-06-28T02:34:37.499Z,12.34
2023-06-28T02:37:22.765Z,12.28
2023-06-28T02:40:08.829Z,12.26
2023-06-28T02:42:54.181Z,12.10
2023-06-28T02:45:39.637Z,12.08
2023-06-28T02:48:24.770Z,12.23
2023-06-28T02:51:10.133Z,11.92
2023-06-28T02:53:55.370Z,11.84
2023-06-28T02:56:40.335Z,12.00
2023-06-28T02:59:25.801Z,12.07
2023-06-28T03:02:11.203Z,12.01
2023-06-28T03:04:56.661Z,12.03
2023-06-28T03:07:42.145Z,12.07
2023-06-28T03:10:27.371Z,12.12
2023-06-28T03:13:12.615Z,12.05
2023-06-28T03:15:57.996Z,12.01
2023-06-28T03:18:43.329Z,12.11
2023-06-28T03:21:28.537Z,12.16
2023-06-28T03:24:13.992Z,12.13
2023-06-28T03:26:59.271Z,12.16
2023-06-28T03:29:44.662Z,12.24
2023-06-28T03:32:30.002Z,12.20
2023-06-28T03:35:15.541Z,12.07
2023-06-28T03:38:00.911Z,12.08
2023-06-28T03:40:46.108Z,12.09
2023-06-28T03:43:31.603Z,12.08
2023-06-28T03:46:17.286Z,12.09
2023-06-28T03:49:02.920Z,12.08
2023-06-28T03:51:48.497Z,11.97
2023-06-28T03:54:33.775Z,12.07
2023-06-28T03:57:19.584Z,12.18
2023-06-28T04:00:06.192Z,12.27
2023-06-28T04:02:51.656Z,12.39
2023-06-28T04:05:36.875Z,12.29
2023-06-28T04:08:22.108Z,12.35
2023-06-28T04:11:07.451Z,12.46
2023-06-28T04:13:52.742Z,12.59
2023-06-28T04:16:38.428Z,12.88
2023-06-28T04:19:23.845Z,12.95
2023-06-28T04:22:09.538Z,13.10
2023-06-28T04:24:55.061Z,13.13
2023-06-28T04:27:40.379Z,13.28
2023-06-28T04:30:25.716Z,13.35
2023-06-28T04:33:10.998Z,13.38
2023-06-28T04:35:57.406Z,13.59
2023-06-28T04:38:42.980Z,13.69
2023-06-28T04:41:28.873Z,13.69
2023-06-28T04:44:14.410Z,13.86
2023-06-28T04:46:59.606Z,13.97
2023-06-28T04:49:50.587Z,14.06
2023-06-28T04:52:36.208Z,14.27
2023-06-28T04:55:21.629Z,14.34
2023-06-28T04:58:07.179Z,14.40
2023-06-28T05:00:53.132Z,14.54
2023-06-28T05:03:38.903Z,14.58
2023-06-28T05:06:23.919Z,14.66
2023-06-28T05:09:09.345Z,14.74
2023-06-28T05:11:54.826Z,14.79
2023-06-28T05:14:39.900Z,15.05
2023-06-28T05:17:25.115Z,15.15
2023-06-28T05:20:12.981Z,14.95
2023-06-28T05:23:18.760Z,15.08
2023-06-28T05:26:04.046Z,15.09
2023-06-28T05:28:49.351Z,15.35
2023-06-28T05:31:37.914Z,15.63
2023-06-28T05:34:23.367Z,15.78
2023-06-28T05:37:08.641Z,15.74
2023-06-28T05:39:54.355Z,15.85
2023-06-28T05:42:39.566Z,15.87
2023-06-28T05:45:29.308Z,15.85
2023-06-28T05:48:15.103Z,15.93
2023-06-28T05:51:00.542Z,15.87
2023-06-28T05:53:45.895Z,15.79
2023-06-28T05:56:31.179Z,15.60
2023-06-28T05:59:16.430Z,15.55
2023-06-28T06:02:02.118Z,15.55
2023-06-28T06:04:47.246Z,15.71
2023-06-28T06:07:32.804Z,15.74
2023-06-28T06:10:18.011Z,15.85
2023-06-28T06:13:03.635Z,15.79
2023-06-28T06:15:48.829Z,15.99
2023-06-28T06:18:34.103Z,15.65
2023-06-28T06:21:19.491Z,16.01
2023-06-28T06:24:05.358Z,16.19
2023-06-28T06:26:50.854Z,16.40
2023-06-28T06:29:36.118Z,16.63
2023-06-28T06:32:21.511Z,16.61
2023-06-28T06:35:07.612Z,16.38
2023-06-28T06:37:52.900Z,16.31
2023-06-28T06:40:38.310Z,16.09
2023-06-28T06:43:23.768Z,16.23
2023-06-28T06:46:09.729Z,16.39
2023-06-28T06:48:55.116Z,16.36
2023-06-28T06:51:40.267Z,16.42
2023-06-28T06:54:25.543Z,16.57
2023-06-28T06:57:10.927Z,16.74
2023-06-28T06:59:56.399Z,16.93
2023-06-28T07:02:41.893Z,17.25
2023-06-28T07:05:27.214Z,17.32
2023-06-28T07:08:12.612Z,17.51
2023-06-28T07:10:57.993Z,17.65
2023-06-28T07:13:43.417Z,17.75
2023-06-28T07:16:28.685Z,18.09
2023-06-28T07:19:15.472Z,18.29
2023-06-28T07:22:01.138Z,18.29
2023-06-28T07:24:46.439Z,18.32
2023-06-28T07:27:31.965Z,18.70
2023-06-28T07:30:17.754Z,18.54
2023-06-28T07:33:05.706Z,18.81
2023-06-28T07:35:52.457Z,18.87
2023-06-28T07:38:38.145Z,18.56
2023-06-28T07:41:23.189Z,18.89
2023-06-28T07:44:08.605Z,18.66
2023-06-28T07:46:53.865Z,18.78
2023-06-28T07:49:39.343Z,18.56
2023-06-28T07:52:24.711Z,18.67
2023-06-28T07:55:10.200Z,18.69
2023-06-28T07:57:56.272Z,18.27
2023-06-28T08:00:41.593Z,18.14
2023-06-28T08:03:27.475Z,18.49
2023-06-28T08:06:13.491Z,18.80
2023-06-28T08:08:59.372Z,19.01
2023-06-28T08:11:44.738Z,19.01
2023-06-28T08:14:29.958Z,18.80
2023-06-28T08:17:15.427Z,18.63
2023-06-28T08:20:00.701Z,18.28
2023-06-28T08:22:46.097Z,18.26
2023-06-28T08:25:31.415Z,18.20
2023-06-28T08:28:16.753Z,17.86
2023-06-28T08:31:02.431Z,17.58
2023-06-28T08:33:48.897Z,18.10
2023-06-28T08:36:34.348Z,18.89
2023-06-28T08:39:19.868Z,19.22
2023-06-28T08:42:05.849Z,18.34
2023-06-28T08:44:54.822Z,18.67
2023-06-28T08:47:41.143Z,18.99
2023-06-28T08:50:27.118Z,18.37
2023-06-28T08:53:16.532Z,18.43
2023-06-28T08:56:02.753Z,19.07
2023-06-28T08:58:49.909Z,20.45
2023-06-28T09:01:36.757Z,21.01
2023-06-28T09:04:28.449Z,20.22
2023-06-28T09:07:16.385Z,19.13
2023-06-28T09:10:02.296Z,19.42
2023-06-28T09:12:48.950Z,19.70
2023-06-28T09:15:35.447Z,20.17
2023-06-28T09:18:20.998Z,20.76
2023-06-28T09:21:06.231Z,20.85
2023-06-28T09:23:51.468Z,21.28
2023-06-28T09:26:36.764Z,20.02
2023-06-28T09:29:22.141Z,19.34
2023-06-28T09:32:07.707Z,19.54
2023-06-28T09:34:53.319Z,19.58
2023-06-28T09:37:39.708Z,19.55
2023-06-28T09:40:25.047Z,20.25
2023-06-28T09:43:15.023Z,20.91
2023-06-28T09:46:18.197Z,20.71
2023-06-28T09:49:03.565Z,19.81
2023-06-28T09:52:03.419Z,20.12
2023-06-28T09:54:50.642Z,20.51
2023-06-28T09:57:36.306Z,20.12
2023-06-28T10:00:22.028Z,20.41
2023-06-28T10:03:10.077Z,20.15
2023-06-28T10:05:57.075Z,20.14
2023-06-28T10:08:43.374Z,20.89
2023-06-28T10:11:32.273Z,21.56
2023-06-28T10:14:20.218Z,21.17
2023-06-28T10:17:06.799Z,21.88
2023-06-28T10:19:54.010Z,21.80
2023-06-28T10:22:39.676Z,20.12
2023-06-28T10:25:26.910Z,19.96
2023-06-28T10:28:14.378Z,20.64
2023-06-28T10:30:59.670Z,21.04
2023-06-28T10:33:45.834Z,21.34
2023-06-28T10:36:31.003Z,20.79
2023-06-28T10:39:17.306Z,20.02
2023-06-28T10:42:02.920Z,19.89
2023-06-28T10:44:56.242Z,19.66
2023-06-28T10:47:52.485Z,19.99
2023-06-28T10:50:42.487Z,20.23
2023-06-28T10:53:29.735Z,20.30
2023-06-28T10:56:15.156Z,20.70
2023-06-28T10:59:06.162Z,21.07
2023-06-28T11:01:55.399Z,21.03
2023-06-28T11:04:53.429Z,21.18
2023-06-28T11:07:38.724Z,20.72
2023-06-28T11:10:37.501Z,20.62
2023-06-28T11:13:52.060Z,20.88
2023-06-28T11:16:37.569Z,22.00
2023-06-28T11:19:22.666Z,21.28
2023-06-28T11:22:08.303Z,21.56
2023-06-28T11:24:55.562Z,21.20
2023-06-28T11:27:41.970Z,21.25
2023-06-28T11:31:26.111Z,20.65
2023-06-28T11:34:14.926Z,20.29
2023-06-28T11:37:01.956Z,20.49
2023-06-28T11:39:49.207Z,20.72
2023-06-28T11:42:34.381Z,20.27
2023-06-28T11:45:20.609Z,20.20
2023-06-28T11:48:06.670Z,20.51
2023-06-28T11:51:04.528Z,20.58
2023-06-28T11:53:49.725Z,20.68
2023-06-28T11:56:40.868Z,20.50
2023-06-28T11:59:25.782Z,21.15
2023-06-28T12:02:11.934Z,21.65
2023-06-28T12:05:00.777Z,22.13
2023-06-28T12:07:46.593Z,22.37
2023-06-28T12:10:34.602Z,22.76
2023-06-28T12:13:24.026Z,22.81
2023-06-28T12:16:20.106Z,22.65
2023-06-28T12:19:05.346Z,22.15
2023-06-28T12:21:53.653Z,21.89
2023-06-28T12:24:39.480Z,22.24
2023-06-28T12:27:24.749Z,22.48
2023-06-28T12:30:15.571Z,22.60
2023-06-28T12:33:06.159Z,21.75
2023-06-28T12:35:51.741Z,21.16
2023-06-28T12:38:36.948Z,22.07
2023-06-28T12:41:21.872Z,21.11
2023-06-28T12:44:07.293Z,20.70
2023-06-28T12:46:52.808Z,20.92
2023-06-28T12:49:38.413Z,20.91
2023-06-28T12:52:26.060Z,21.34
2023-06-28T12:55:13.533Z,22.11
2023-06-28T12:57:59.146Z,22.60
2023-06-28T13:00:45.002Z,22.42
2023-06-28T13:03:30.256Z,22.09
2023-06-28T13:06:15.814Z,22.18
2023-06-28T13:09:01.034Z,22.29
2023-06-28T13:11:46.560Z,22.67
2023-06-28T13:14:31.769Z,23.00
2023-06-28T13:17:17.003Z,23.20
2023-06-28T13:20:02.012Z,22.67
2023-06-28T13:22:47.424Z,23.07
2023-06-28T13:25:33.139Z,23.26
2023-06-28T13:28:18.453Z,22.79
2023-06-28T13:31:03.928Z,22.43
2023-06-28T13:33:49.348Z,22.69
2023-06-28T13:36:34.687Z,22.32
2023-06-28T13:39:20.085Z,22.69
2023-06-28T13:42:05.837Z,22.81
2023-06-28T13:44:51.361Z,22.96
2023-06-28T13:47:36.554Z,23.18
2023-06-28T13:50:21.941Z,23.38
2023-06-28T13:53:07.391Z,23.15
2023-06-28T13:55:53.021Z,23.55
2023-06-28T13:58:38.892Z,23.63
2023-06-28T14:01:24.513Z,23.73
2023-06-28T14:04:09.482Z,22.91
2023-06-28T14:06:55.007Z,22.69
2023-06-28T14:09:40.313Z,21.91
2023-06-28T14:12:25.788Z,22.28
2023-06-28T14:15:11.706Z,22.36
2023-06-28T14:17:57.995Z,22.62
2023-06-28T14:20:44.162Z,22.43
2023-06-28T14:23:29.500Z,22.19
2023-06-28T14:26:14.966Z,21.09
2023-06-28T14:29:00.237Z,21.04
2023-06-28T14:31:45.657Z,20.80
2023-06-28T14:34:31.041Z,21.22
2023-06-28T14:37:16.904Z,21.07
2023-06-28T14:40:02.487Z,20.92
2023-06-28T14:42:47.860Z,21.10
2023-06-28T14:45:33.395Z,21.60
2023-06-28T14:48:18.727Z,21.84
2023-06-28T14:51:04.629Z,21.92
2023-06-28T14:53:49.765Z,22.01
2023-06-28T14:56:35.080Z,21.72
2023-06-28T14:59:20.557Z,21.75
2023-06-28T15:02:06.253Z,21.89
2023-06-28T15:04:51.232Z,21.94
2023-06-28T15:07:36.814Z,21.61
2023-06-28T15:10:22.149Z,20.85
2023-06-28T15:13:07.747Z,21.32
2023-06-28T15:15:53.133Z,21.54
2023-06-28T15:18:38.494Z,21.65
2023-06-28T15:21:24.166Z,21.55
2023-06-28T15:24:09.411Z,21.53
2023-06-28T15:26:55.943Z,21.01
2023-06-28T15:29:40.775Z,21.15
2023-06-28T15:32:26.297Z,21.19
2023-06-28T15:35:11.542Z,20.86
2023-06-28T15:37:56.909Z,21.19
2023-06-28T15:40:42.759Z,21.53
2023-06-28T15:43:28.593Z,21.73
2023-06-28T15:46:13.725Z,21.35
2023-06-28T15:48:58.817Z,21.14
2023-06-28T15:51:44.071Z,21.40
2023-06-28T15:54:29.222Z,21.47
2023-06-28T15:57:14.816Z,21.34
2023-06-28T15:59:59.931Z,21.38
2023-06-28T16:02:45.628Z,21.27
2023-06-28T16:05:30.964Z,21.33
2023-06-28T16:08:16.403Z,21.56
2023-06-28T16:11:01.687Z,21.47
2023-06-28T16:13:47.079Z,20.68
2023-06-28T16:16:32.491Z,20.59
2023-06-28T16:19:17.833Z,20.79
2023-06-28T16:22:03.326Z,21.09
2023-06-28T16:24:48.685Z,20.63
2023-06-28T16:27:34.114Z,20.41
2023-06-28T16:30:19.319Z,20.45
2023-06-28T16:33:08.536Z,20.71
2023-06-28T16:35:53.577Z,20.78
2023-06-28T16:38:39.194Z,20.89
2023-06-28T16:41:24.575Z,21.04
2023-06-28T16:44:09.922Z,21.22
2023-06-28T16:46:55.329Z,21.39
2023-06-28T16:49:40.777Z,20.29
2023-06-28T16:52:26.050Z,19.99
2023-06-28T16:55:11.499Z,20.26
2023-06-28T16:57:56.946Z,20.46
2023-06-28T17:00:42.470Z,20.77
2023-06-28T17:03:27.976Z,20.95
2023-06-28T17:06:13.349Z,20.38
2023-06-28T17:08:59.526Z,20.34
2023-06-28T17:11:44.977Z,20.53
2023-06-28T17:14:29.926Z,20.67
2023-06-28T17:17:15.590Z,20.87
2023-06-28T17:20:00.999Z,21.03
2023-06-28T17:22:46.230Z,21.09
2023-06-28T17:25:31.547Z,21.17
2023-06-28T17:28:17.166Z,21.18
2023-06-28T17:31:02.535Z,21.25
2023-06-28T17:33:47.915Z,21.14
2023-06-28T17:36:33.231Z,21.28
2023-06-28T17:39:19.231Z,21.44
2023-06-28T17:42:07.707Z,21.17
2023-06-28T17:44:53.105Z,21.07
2023-06-28T17:47:38.389Z,21.17
2023-06-28T17:50:23.912Z,21.21
2023-06-28T17:53:09.450Z,21.28
2023-06-28T17:55:54.938Z,21.15
2023-06-28T17:58:41.353Z,21.13
2023-06-28T18:01:26.654Z,21.17
2023-06-28T18:04:11.977Z,21.19
2023-06-28T18:06:57.542Z,21.17
2023-06-28T18:09:42.744Z,21.30
2023-06-28T18:12:28.073Z,21.26
2023-06-28T18:15:13.439Z,21.28
2023-06-28T18:17:58.630Z,21.10
2023-06-28T18:20:44.292Z,21.04
2023-06-28T18:23:29.778Z,21.01
2023-06-28T18:26:15.287Z,21.13
2023-06-28T18:29:00.694Z,21.20
2023-06-28T18:31:46.106Z,21.04
2023-06-28T18:34:31.542Z,20.82
2023-06-28T18:37:17.026Z,20.78
2023-06-28T18:40:02.523Z,20.71
2023-06-28T18:42:47.956Z,20.55
2023-06-28T18:45:33.474Z,20.48
2023-06-28T18:48:18.939Z,20.47
2023-06-28T18:51:04.422Z,20.69
2023-06-28T18:53:49.717Z,20.67
2023-06-28T18:56:35.123Z,20.50
2023-06-28T18:59:20.617Z,20.36
2023-06-28T19:02:06.511Z,20.26
2023-06-28T19:04:51.904Z,20.43
2023-06-28T19:07:37.321Z,20.55
2023-06-28T19:10:22.479Z,20.55
2023-06-28T19:13:08.022Z,20.57
2023-06-28T19:15:53.276Z,20.36
2023-06-28T19:18:38.629Z,20.52
2023-06-28T19:21:23.976Z,20.29
2023-06-28T19:24:09.256Z,20.20
2023-06-28T19:26:55.546Z,20.22
2023-06-28T19:29:40.798Z,20.18
2023-06-28T19:32:26.057Z,20.11
2023-06-28T19:35:11.534Z,20.10
2023-06-28T19:37:56.935Z,20.14
2023-06-28T19:40:42.550Z,20.21
2023-06-28T19:43:27.813Z,20.24
2023-06-28T19:46:13.326Z,20.02
2023-06-28T19:48:58.658Z,19.87
2023-06-28T19:51:44.110Z,19.82
2023-06-28T19:54:29.523Z,19.95
2023-06-28T19:57:14.769Z,19.81
2023-06-28T20:00:00.242Z,19.75
2023-06-28T20:02:45.777Z,19.68
2023-06-28T20:05:31.102Z,19.65
2023-06-28T20:08:16.215Z,19.83
2023-06-28T20:11:01.528Z,19.88
2023-06-28T20:13:46.778Z,19.91
2023-06-28T20:16:32.421Z,19.94
2023-06-28T20:19:17.880Z,19.96
2023-06-28T20:22:03.194Z,19.96
2023-06-28T20:24:48.517Z,19.89
2023-06-28T20:27:34.636Z,19.90
2023-06-28T20:30:19.786Z,19.78
2023-06-28T20:33:06.706Z,19.57
2023-06-28T20:35:52.690Z,19.60
2023-06-28T20:38:37.803Z,19.49
2023-06-28T20:41:23.240Z,19.37
2023-06-28T20:44:08.690Z,19.29
2023-06-28T20:46:53.900Z,19.34
2023-06-28T20:49:39.289Z,19.27
2023-06-28T20:52:24.974Z,19.19
2023-06-28T20:55:10.077Z,19.20
2023-06-28T20:57:55.522Z,19.20
2023-06-28T21:00:40.944Z,19.31
2023-06-28T21:03:26.403Z,19.35
2023-06-28T21:06:11.677Z,19.16
2023-06-28T21:08:56.893Z,19.11
2023-06-28T21:11:41.902Z,19.31
2023-06-28T21:14:27.364Z,19.36
2023-06-28T21:17:12.822Z,19.39
2023-06-28T21:19:58.057Z,19.38
2023-06-28T21:22:43.326Z,19.40
2023-06-28T21:25:28.840Z,19.22
2023-06-28T21:28:14.752Z,19.07
2023-06-28T21:31:00.187Z,19.09
2023-06-28T21:33:45.542Z,19.13
2023-06-28T21:36:30.941Z,19.24
2023-06-28T21:39:16.431Z,19.26
2023-06-28T21:42:01.694Z,19.31
2023-06-28T21:44:47.254Z,19.38
2023-06-28T21:47:32.762Z,19.36
2023-06-28T21:50:18.033Z,19.35
2023-06-28T21:53:03.610Z,19.31
2023-06-28T21:55:49.063Z,19.35
2023-06-28T21:58:34.231Z,19.47
2023-06-28T22:01:19.601Z,19.36
2023-06-28T22:04:05.161Z,19.17
2023-06-28T22:07:05.263Z,19.09
2023-06-28T22:09:51.688Z,19.02
2023-06-28T22:12:38.677Z,19.08
2023-06-28T22:15:27.420Z,19.15
2023-06-28T22:18:12.602Z,19.19
2023-06-28T22:20:58.214Z,19.22
2023-06-28T22:23:43.444Z,19.42
2023-06-28T22:26:28.799Z,19.52
2023-06-28T22:29:14.289Z,19.52
2023-06-28T22:31:59.593Z,19.55
2023-06-28T22:34:46.401Z,19.55
2023-06-28T22:37:31.437Z,19.59
2023-06-28T22:40:16.735Z,19.36
2023-06-28T22:43:02.217Z,19.25
2023-06-28T22:45:50.557Z,19.07
2023-06-28T22:48:35.946Z,19.06
2023-06-28T22:51:21.026Z,19.31
2023-06-28T22:54:10.500Z,19.33
2023-06-28T22:56:56.241Z,19.19
2023-06-28T22:59:41.653Z,19.22
2023-06-28T23:02:27.054Z,19.25
2023-06-28T23:05:12.509Z,19.12
2023-06-28T23:07:57.815Z,19.09
2023-06-28T23:10:43.687Z,19.05
2023-06-28T23:13:29.121Z,19.06
2023-06-28T23:16:14.447Z,19.11
2023-06-28T23:19:00.891Z,19.12
2023-06-28T23:21:46.459Z,19.11
2023-06-28T23:24:31.768Z,19.21
2023-06-28T23:27:17.134Z,19.26
2023-06-28T23:30:02.770Z,19.31
2023-06-28T23:32:47.867Z,19.27
2023-06-28T23:35:35.051Z,19.24
2023-06-28T23:38:20.389Z,19.27
2023-06-28T23:41:06.780Z,19.27
2023-06-28T23:43:52.211Z,19.30
2023-06-28T23:46:37.664Z,19.23
2023-06-28T23:49:23.099Z,19.13
2023-06-28T23:52:09.045Z,19.13
2023-06-28T23:54:54.306Z,19.01
2023-06-28T23:57:39.231Z,19.08
